Diretta Meteo Bologna-Borgo Panigale, Italialunedì 22 aprile ore 05:50

Mappa
Sereno 12 °C Foschia 24 Ore: T.min 10 T.max 22
Ponente Nord Km/h 5.5 Punto di rugiada: 11 °C Umidità: 93% Visibilità: 4 Km
Il sole sorge alle: 06:17 Il sole tramonta alle: 20:09
22 Aprile 2019 05:50 tempo osservato: Foschia Foschia 12 93 1016 vento: Nord N 5.5
22 Aprile 2019 05:20 tempo osservato: Foschia Foschia 12 93 1016 vento: Nord N 5.5
22 Aprile 2019 04:50 tempo osservato: Foschia Foschia 12 93 1016 vento: Nord E/SE 7.4
22 Aprile 2019 04:20 tempo osservato: Foschia Foschia 12 93 1016 vento: Nord E/NE 7.4
22 Aprile 2019 03:50 tempo osservato: Molto Nuvoloso Molto Nuvoloso 12 87 1017 vento: Nord N 3.7
22 Aprile 2019 03:20 tempo osservato: Molto Nuvoloso Molto Nuvoloso 12 87 1017 vento: Nord N 5.5
22 Aprile 2019 02:50 tempo osservato: Molto Nuvoloso Molto Nuvoloso 12 87 1017 vento: Nord N 3.7
22 Aprile 2019 02:20 tempo osservato: Molto Nuvoloso Molto Nuvoloso 12 87 1017 vento: Nord N 3.7
22 Aprile 2019 01:50 tempo osservato: Nuvoloso Nuvoloso 12 93 1017 vento: Nord N 5.5
22 Aprile 2019 01:20 tempo osservato: Nuvoloso Nuvoloso 13 87 1017 vento: Nord E/NE 7.4
22 Aprile 2019 00:50 tempo osservato: Nuvoloso Nuvoloso 13 87 1017 vento: Nord E 7.4
22 Aprile 2019 00:20 tempo osservato: Nuvoloso Nuvoloso 13 87 1017 vento: Nord E 11.1
21 Aprile 2019 23:50 tempo osservato: Nuvoloso Nuvoloso 12 87 1017 vento: Nord E 13
21 Aprile 2019 23:20 tempo osservato: Sereno Sereno 13 81 1017 vento: Nord E 9.3
21 Aprile 2019 22:20 tempo osservato: Sereno Sereno 12 76 1017 vento: Nord N 5.5
21 Aprile 2019 21:50 tempo osservato: Sereno Sereno 14 67 1017 vento: Nord E 11.1
21 Aprile 2019 21:20 tempo osservato: Sereno Sereno 15 58 1017 vento: Nord E 11.1
21 Aprile 2019 20:50 tempo osservato: Sereno Sereno 15 58 1017 vento: Nord E/SE 13
21 Aprile 2019 20:20 tempo osservato: Sereno Sereno 16 47 1017 vento: Nord E/SE 14.8
21 Aprile 2019 19:50 tempo osservato: Sereno Sereno 17 41 1017 vento: Nord E 14.8
21 Aprile 2019 19:20 tempo osservato: Sereno Sereno 19 32 1017 vento: Nord E 18.5
21 Aprile 2019 18:50 tempo osservato: Sereno Sereno 20 30 1017 vento: Nord E 24
21 Aprile 2019 18:20 tempo osservato: Sereno Sereno 21 28 1017 vento: Nord E 22.2
21 Aprile 2019 17:50 tempo osservato: Sereno Sereno 21 30 1017 vento: Nord E 20.3
21 Aprile 2019 17:20 tempo osservato: Sereno Sereno 21 28 1018 vento: Nord E 20.3
21 Aprile 2019 16:50 tempo osservato: Sereno Sereno 21 26 1018 vento: Nord E/SE 22.2
21 Aprile 2019 16:20 tempo osservato: Sereno Sereno 21 28 1018 vento: Nord E 18.5
21 Aprile 2019 15:50 tempo osservato: Sereno Sereno 22 30 1018 vento: Nord E 18.5
21 Aprile 2019 15:20 tempo osservato: Sereno Sereno 22 32 1019 vento: Nord E 16.7
21 Aprile 2019 14:50 tempo osservato: Sereno Sereno 22 32 1019 vento: Nord E 16.7
21 Aprile 2019 14:20 tempo osservato: Sereno Sereno 21 37 1019 vento: Nord E 16.7
21 Aprile 2019 13:50 tempo osservato: Sereno Sereno 21 35 1020 vento: Nord E 14.8
21 Aprile 2019 13:20 tempo osservato: Sereno Sereno 21 35 1020 vento: Nord E/SE 14.8
21 Aprile 2019 12:50 tempo osservato: Sereno Sereno 21 35 1020 vento: Nord E 13
21 Aprile 2019 12:20 tempo osservato: Sereno Sereno 20 37 1020 vento: Nord E 9.3
21 Aprile 2019 11:50 tempo osservato: Sereno Sereno 19 45 1021 vento: Nord NE 7.4
21 Aprile 2019 11:20 tempo osservato: Sereno Sereno 19 42 1021 vento: Nord N 5.5
21 Aprile 2019 10:50 tempo osservato: Sereno Sereno 18 45 1021 vento: Nord N 3.7
21 Aprile 2019 10:20 tempo osservato: Sereno Sereno 18 48 1021 vento: Nord N 1.8
21 Aprile 2019 09:50 tempo osservato: Sereno Sereno 16 47 1022 vento: Nord N 3.7
21 Aprile 2019 09:20 tempo osservato: Sereno Sereno 15 54 1022 vento: Nord N 5.5
21 Aprile 2019 08:20 tempo osservato: Sereno Sereno 11 66 1022 vento: Nord SO 9.3
21 Aprile 2019 07:50 tempo osservato: Sereno Sereno 11 66 1022 vento: Nord S/SO 7.4
21 Aprile 2019 07:20 tempo osservato: Sereno Sereno 10 71 1022 vento: Nord S/SO 9.3
21 Aprile 2019 06:50 tempo osservato: Sereno Sereno 10 71 1022 vento: Nord S/SO 11.1